createdAt,value
2019-01-27T00:00:20.062Z,40.13
2019-01-27T00:02:52.380Z,44.60
2019-01-27T00:05:23.176Z,39.33
2019-01-27T00:07:53.798Z,34.73
2019-01-27T00:10:24.633Z,31.23
2019-01-27T00:12:55.315Z,31.67
2019-01-27T00:15:26.122Z,33.43
2019-01-27T00:17:56.778Z,33.67
2019-01-27T00:20:27.938Z,32.70
2019-01-27T00:22:58.426Z,32.80
2019-01-27T00:25:30.709Z,33.90
2019-01-27T00:28:01.257Z,26.33
2019-01-27T00:30:32.148Z,30.67
2019-01-27T00:33:02.763Z,29.23
2019-01-27T00:35:33.259Z,27.27
2019-01-27T00:38:03.916Z,26.43
2019-01-27T00:40:34.624Z,26.30
2019-01-27T00:43:05.521Z,27.63
2019-01-27T00:45:35.993Z,25.53
2019-01-27T00:48:06.986Z,25.33
2019-01-27T00:50:37.549Z,21.97
2019-01-27T00:53:08.349Z,21.40
2019-01-27T00:55:39.524Z,22.07
2019-01-27T00:58:10.373Z,21.73
2019-01-27T01:00:41.038Z,21.67
2019-01-27T01:03:11.929Z,22.43
2019-01-27T01:05:43.764Z,22.90
2019-01-27T01:08:14.812Z,22.40
2019-01-27T01:10:45.415Z,18.70
2019-01-27T01:13:16.604Z,22.83
2019-01-27T01:15:47.521Z,23.37
2019-01-27T01:18:19.582Z,23.07
2019-01-27T01:20:50.462Z,27.13
2019-01-27T01:23:21.214Z,28.93
2019-01-27T01:25:51.816Z,29.73
2019-01-27T01:28:22.535Z,31.27
2019-01-27T01:30:53.007Z,28.17
2019-01-27T01:33:23.949Z,24.50
2019-01-27T01:35:54.518Z,28.77
2019-01-27T01:38:25.420Z,22.60
2019-01-27T01:40:55.933Z,22.93
2019-01-27T01:43:26.446Z,23.20
2019-01-27T01:45:57.002Z,25.13
2019-01-27T01:48:27.588Z,24.27
2019-01-27T01:50:58.372Z,26.93
2019-01-27T01:53:30.511Z,28.00
2019-01-27T01:56:01.036Z,26.03
2019-01-27T01:58:31.707Z,25.77
2019-01-27T02:01:02.637Z,23.43
2019-01-27T02:03:33.522Z,24.73
2019-01-27T02:06:04.460Z,24.73
2019-01-27T02:08:35.193Z,25.70
2019-01-27T02:11:06.040Z,23.30
2019-01-27T02:13:36.907Z,24.67
2019-01-27T02:16:11.000Z,22.97
2019-01-27T02:18:42.040Z,20.43
2019-01-27T02:21:12.678Z,20.90
2019-01-27T02:23:43.457Z,19.70
2019-01-27T02:26:14.162Z,19.73
2019-01-27T02:28:44.714Z,18.80
2019-01-27T02:31:15.709Z,18.07
2019-01-27T02:33:47.496Z,18.80
2019-01-27T02:36:19.080Z,18.27
2019-01-27T02:38:50.054Z,18.83
2019-01-27T02:41:20.958Z,22.30
2019-01-27T02:43:51.783Z,20.40
2019-01-27T02:46:22.513Z,21.17
2019-01-27T02:48:53.396Z,20.13
2019-01-27T02:51:24.034Z,21.87
2019-01-27T02:53:54.977Z,18.90
2019-01-27T02:56:27.343Z,17.73
2019-01-27T02:58:57.932Z,14.70
2019-01-27T03:01:29.015Z,14.93
2019-01-27T03:03:59.671Z,15.93
2019-01-27T03:06:38.427Z,14.03
2019-01-27T03:09:14.276Z,12.60
2019-01-27T03:11:48.701Z,12.50
2019-01-27T03:14:20.666Z,12.57
2019-01-27T03:16:52.662Z,12.43
2019-01-27T03:19:23.131Z,11.80
2019-01-27T03:21:53.847Z,12.23
2019-01-27T03:24:24.972Z,12.00
2019-01-27T03:26:55.626Z,11.60
2019-01-27T03:29:27.276Z,11.43
2019-01-27T03:31:57.958Z,11.87
2019-01-27T03:34:28.482Z,11.67
2019-01-27T03:36:59.482Z,10.93
2019-01-27T03:39:30.128Z,9.73
2019-01-27T03:42:00.698Z,10.47
2019-01-27T03:44:31.403Z,10.83
2019-01-27T03:47:01.882Z,10.50
2019-01-27T03:49:32.331Z,10.43
2019-01-27T03:52:03.449Z,11.30
2019-01-27T03:54:33.981Z,11.63
2019-01-27T03:57:04.963Z,9.83
2019-01-27T03:59:35.907Z,10.43
2019-01-27T04:02:06.774Z,10.17
2019-01-27T04:04:37.455Z,9.43
2019-01-27T04:07:08.559Z,9.33
2019-01-27T04:09:39.204Z,8.33
2019-01-27T04:12:10.014Z,9.97
2019-01-27T04:14:40.748Z,9.60
2019-01-27T04:17:11.378Z,9.50
2019-01-27T04:19:42.241Z,9.53
2019-01-27T04:22:12.829Z,9.50
2019-01-27T04:24:43.356Z,8.63
2019-01-27T04:27:13.964Z,9.37
2019-01-27T04:29:44.523Z,9.00
2019-01-27T04:32:15.160Z,9.40
2019-01-27T04:34:45.650Z,8.73
2019-01-27T04:37:16.610Z,9.40
2019-01-27T04:39:47.266Z,9.60
2019-01-27T04:42:17.922Z,8.10
2019-01-27T04:44:48.610Z,8.43
2019-01-27T04:47:19.264Z,8.67
2019-01-27T04:49:49.874Z,9.13
2019-01-27T04:52:20.626Z,7.97
2019-01-27T04:54:51.152Z,7.73
2019-01-27T04:57:21.952Z,8.33
2019-01-27T04:59:52.492Z,8.80
2019-01-27T05:02:24.640Z,8.90
2019-01-27T05:04:55.242Z,8.17
2019-01-27T05:07:25.781Z,8.83
2019-01-27T05:09:56.515Z,7.43
2019-01-27T05:12:27.104Z,8.97
2019-01-27T05:14:57.641Z,8.37
2019-01-27T05:17:28.456Z,9.13
2019-01-27T05:19:59.006Z,8.40
2019-01-27T05:22:29.587Z,7.73
2019-01-27T05:25:00.433Z,9.07
2019-01-27T05:27:31.006Z,9.23
2019-01-27T05:30:01.609Z,9.20
2019-01-27T05:32:32.745Z,8.13
2019-01-27T05:35:03.434Z,8.20
2019-01-27T05:37:34.185Z,8.53
2019-01-27T05:40:06.436Z,9.07
2019-01-27T05:42:37.377Z,7.87
2019-01-27T05:45:09.394Z,7.20
2019-01-27T05:47:39.919Z,8.23
2019-01-27T05:50:12.475Z,8.90
2019-01-27T05:52:43.456Z,9.27
2019-01-27T05:55:14.884Z,10.37
2019-01-27T05:57:45.552Z,9.40
2019-01-27T06:00:20.808Z,10.90
2019-01-27T06:02:51.401Z,10.03
2019-01-27T06:05:22.036Z,9.37
2019-01-27T06:07:52.555Z,9.13
2019-01-27T06:10:23.136Z,9.23
2019-01-27T06:12:53.856Z,9.77
2019-01-27T06:15:24.714Z,10.07
2019-01-27T06:17:55.859Z,8.63
2019-01-27T06:20:26.492Z,7.83
2019-01-27T06:22:57.306Z,8.30
2019-01-27T06:25:27.997Z,8.37
2019-01-27T06:27:59.664Z,8.37
2019-01-27T06:30:30.528Z,8.70
2019-01-27T06:33:06.304Z,8.27
2019-01-27T06:35:39.973Z,7.33
2019-01-27T06:38:10.793Z,8.13
2019-01-27T06:40:41.758Z,8.40
2019-01-27T06:43:12.601Z,7.50
2019-01-27T06:45:43.327Z,8.27
2019-01-27T06:48:13.871Z,8.30
2019-01-27T06:50:44.477Z,7.90
2019-01-27T06:53:15.212Z,9.10
2019-01-27T06:55:45.729Z,7.17
2019-01-27T06:58:16.207Z,9.10
2019-01-27T07:00:57.293Z,9.77
2019-01-27T07:03:46.961Z,8.93
2019-01-27T07:06:48.651Z,8.13
2019-01-27T07:09:26.330Z,8.70
2019-01-27T07:12:14.396Z,7.30
2019-01-27T07:15:09.978Z,8.10
2019-01-27T07:18:18.249Z,7.40
2019-01-27T07:21:08.147Z,8.47
2019-01-27T07:23:56.400Z,8.00
2019-01-27T07:26:34.408Z,9.37
2019-01-27T07:29:26.808Z,7.40
2019-01-27T07:32:25.050Z,8.40
2019-01-27T07:35:16.102Z,8.07
2019-01-27T07:37:52.981Z,8.30
2019-01-27T07:40:43.208Z,8.97
2019-01-27T07:43:29.085Z,8.00
2019-01-27T07:46:23.378Z,7.93
2019-01-27T07:49:25.206Z,8.03
2019-01-27T07:52:20.625Z,7.70
2019-01-27T07:55:10.207Z,6.87
2019-01-27T07:57:51.653Z,6.97
2019-01-27T08:00:39.629Z,7.47
2019-01-27T08:03:32.349Z,7.20
2019-01-27T08:06:18.495Z,8.60
2019-01-27T08:09:01.391Z,7.87
2019-01-27T08:11:45.217Z,7.27
2019-01-27T08:14:31.663Z,7.10
2019-01-27T08:17:13.567Z,8.43
2019-01-27T08:20:12.059Z,7.33
2019-01-27T08:23:00.144Z,8.00
2019-01-27T08:25:35.806Z,7.70
2019-01-27T08:28:34.619Z,8.17
2019-01-27T08:31:19.419Z,7.83
2019-01-27T08:34:09.208Z,10.63
2019-01-27T08:36:50.739Z,12.27
2019-01-27T08:39:28.490Z,8.83
2019-01-27T08:42:21.074Z,11.43
2019-01-27T08:45:26.023Z,7.07
2019-01-27T08:47:56.570Z,7.13
2019-01-27T08:50:27.208Z,14.30
2019-01-27T08:52:58.126Z,8.53
2019-01-27T08:55:28.677Z,10.10
2019-01-27T08:57:59.494Z,9.07
2019-01-27T09:00:37.653Z,8.50
2019-01-27T09:03:20.011Z,9.90
2019-01-27T09:06:09.829Z,8.67
2019-01-27T09:08:51.429Z,9.63
2019-01-27T09:11:40.193Z,7.97
2019-01-27T09:14:23.181Z,8.27
2019-01-27T09:17:11.626Z,8.20
2019-01-27T09:20:07.367Z,8.47
2019-01-27T09:22:49.059Z,7.53
2019-01-27T09:25:41.409Z,7.40
2019-01-27T09:28:31.909Z,7.87
2019-01-27T09:31:26.410Z,7.00
2019-01-27T09:34:19.202Z,7.83
2019-01-27T09:37:06.893Z,6.83
2019-01-27T09:39:55.471Z,7.07
2019-01-27T09:42:38.095Z,7.33
2019-01-27T09:45:29.185Z,10.67
2019-01-27T09:48:12.946Z,9.30
2019-01-27T09:50:48.679Z,10.40
2019-01-27T09:53:31.591Z,9.97
2019-01-27T09:56:24.194Z,9.13
2019-01-27T09:59:09.234Z,8.60
2019-01-27T10:01:58.410Z,7.33
2019-01-27T10:04:40.997Z,6.40
2019-01-27T10:07:29.152Z,6.37
2019-01-27T10:10:17.432Z,6.10
2019-01-27T10:13:19.177Z,6.60
2019-01-27T10:16:10.196Z,6.87
2019-01-27T10:19:00.408Z,6.80
2019-01-27T10:21:37.816Z,7.27
2019-01-27T10:24:36.718Z,9.17
2019-01-27T10:27:33.898Z,6.87
2019-01-27T10:30:30.114Z,7.53
2019-01-27T10:33:22.765Z,6.47
2019-01-27T10:36:00.787Z,6.30
2019-01-27T10:39:05.401Z,7.27
2019-01-27T10:42:00.065Z,6.27
2019-01-27T10:45:04.728Z,6.90
2019-01-27T10:47:53.063Z,6.83
2019-01-27T10:50:48.745Z,7.07
2019-01-27T10:53:34.822Z,6.20
2019-01-27T10:56:23.945Z,5.43
2019-01-27T10:59:26.079Z,6.77
2019-01-27T11:02:14.575Z,7.40
2019-01-27T11:04:57.891Z,7.43
2019-01-27T11:07:38.509Z,7.10
2019-01-27T11:10:27.869Z,7.37
2019-01-27T11:13:23.551Z,10.33
2019-01-27T11:16:11.572Z,7.20
2019-01-27T11:19:01.336Z,6.43
2019-01-27T11:21:49.808Z,8.97
2019-01-27T11:24:26.798Z,7.80
2019-01-27T11:27:16.303Z,11.07
2019-01-27T11:32:58.246Z,9.40
2019-01-27T11:35:54.338Z,8.30
2019-01-27T11:38:58.956Z,7.97
2019-01-27T11:41:47.230Z,7.50
2019-01-27T11:44:39.674Z,7.70
2019-01-27T11:47:35.255Z,7.97
2019-01-27T11:50:36.037Z,8.20
2019-01-27T11:53:08.593Z,8.87
2019-01-27T11:55:39.468Z,8.60
2019-01-27T11:58:10.407Z,8.37
2019-01-27T12:00:44.145Z,7.70
2019-01-27T12:03:14.685Z,8.37
2019-01-27T12:05:45.231Z,8.53
2019-01-27T12:08:15.745Z,8.67
2019-01-27T12:10:46.715Z,8.63
2019-01-27T12:13:17.279Z,7.90
2019-01-27T12:15:48.097Z,8.80
2019-01-27T12:18:18.737Z,9.37
2019-01-27T12:20:49.223Z,8.63
2019-01-27T12:23:19.792Z,9.60
2019-01-27T12:25:50.335Z,8.40
2019-01-27T12:28:21.026Z,9.17
2019-01-27T12:30:51.737Z,9.03
2019-01-27T12:33:22.617Z,7.93
2019-01-27T12:35:54.781Z,8.13
2019-01-27T12:38:25.425Z,7.57
2019-01-27T12:40:56.124Z,6.50
2019-01-27T12:43:26.990Z,7.80
2019-01-27T12:45:58.078Z,7.43
2019-01-27T12:48:30.105Z,8.27
2019-01-27T12:51:00.702Z,7.17
2019-01-27T12:53:31.176Z,7.67
2019-01-27T12:56:01.981Z,7.80
2019-01-27T12:58:32.625Z,6.50
2019-01-27T13:01:07.058Z,7.30
2019-01-27T13:03:37.588Z,6.77
2019-01-27T13:06:08.114Z,8.20
2019-01-27T13:08:38.751Z,8.07
2019-01-27T13:11:09.405Z,7.93
2019-01-27T13:13:40.652Z,8.70
2019-01-27T13:16:11.238Z,8.13
2019-01-27T13:18:41.876Z,7.33
2019-01-27T13:21:12.538Z,8.30
2019-01-27T13:23:43.205Z,6.57
2019-01-27T13:26:14.201Z,6.73
2019-01-27T13:28:44.902Z,7.30
2019-01-27T13:31:15.439Z,6.30
2019-01-27T13:33:46.051Z,5.60
2019-01-27T13:36:16.576Z,6.27
2019-01-27T13:38:51.250Z,6.50
2019-01-27T13:41:19.366Z,6.37
2019-01-27T13:43:50.233Z,6.17
2019-01-27T13:46:21.099Z,6.57
2019-01-27T13:48:51.696Z,5.83
2019-01-27T13:51:22.261Z,5.77
2019-01-27T13:53:52.859Z,6.70
2019-01-27T13:56:23.411Z,6.50
2019-01-27T13:58:54.054Z,7.07
2019-01-27T14:01:25.014Z,6.27
2019-01-27T14:03:55.729Z,5.93
2019-01-27T14:06:26.379Z,6.53
2019-01-27T14:08:57.041Z,8.27
2019-01-27T14:11:27.731Z,7.40
2019-01-27T14:13:58.375Z,7.97
2019-01-27T14:16:29.022Z,8.27
2019-01-27T14:18:59.669Z,9.03
2019-01-27T14:21:30.261Z,7.37
2019-01-27T14:24:00.892Z,7.10
2019-01-27T14:26:31.502Z,7.90
2019-01-27T14:29:02.737Z,8.60
2019-01-27T14:31:33.155Z,8.83
2019-01-27T14:34:04.128Z,8.00
2019-01-27T14:36:34.614Z,8.70
2019-01-27T14:39:08.631Z,7.97
2019-01-27T14:41:39.861Z,8.93
2019-01-27T14:44:10.794Z,8.43
2019-01-27T14:46:41.428Z,9.50
2019-01-27T14:49:12.345Z,9.70
2019-01-27T14:51:43.003Z,9.10
2019-01-27T14:54:13.801Z,11.50
2019-01-27T14:56:44.552Z,12.97
2019-01-27T14:59:15.364Z,12.67
2019-01-27T15:01:46.122Z,14.50
2019-01-27T15:04:16.749Z,15.87
2019-01-27T15:06:47.638Z,18.83
2019-01-27T15:09:18.267Z,18.83
2019-01-27T15:11:49.357Z,19.33
2019-01-27T15:14:19.890Z,20.33
2019-01-27T15:16:50.457Z,19.60
2019-01-27T15:19:21.073Z,17.67
2019-01-27T15:21:51.665Z,18.83
2019-01-27T15:24:22.618Z,18.43
2019-01-27T15:26:53.241Z,18.83
2019-01-27T15:29:23.967Z,18.30
2019-01-27T15:31:54.443Z,18.47
2019-01-27T15:34:25.332Z,16.93
2019-01-27T15:36:56.866Z,18.50
2019-01-27T15:39:29.212Z,18.20
2019-01-27T15:41:59.924Z,16.83
2019-01-27T15:44:30.514Z,17.93
2019-01-27T15:47:01.568Z,20.53
2019-01-27T15:49:32.247Z,18.70
2019-01-27T15:52:04.455Z,20.27
2019-01-27T15:54:35.161Z,19.67
2019-01-27T15:57:05.995Z,20.60
2019-01-27T15:59:36.816Z,20.37
2019-01-27T16:02:07.524Z,22.13
2019-01-27T16:04:38.292Z,23.60
2019-01-27T16:07:09.186Z,19.37
2019-01-27T16:09:39.695Z,19.23
2019-01-27T16:12:10.870Z,23.53
2019-01-27T16:14:41.487Z,22.83
2019-01-27T16:17:13.260Z,23.37
2019-01-27T16:19:43.940Z,21.73
2019-01-27T16:22:14.637Z,18.43
2019-01-27T16:24:45.577Z,20.10
2019-01-27T16:27:16.499Z,19.83
2019-01-27T16:30:02.502Z,20.87
2019-01-27T16:32:38.497Z,20.03
2019-01-27T16:35:13.980Z,19.23
2019-01-27T16:37:44.652Z,20.20
2019-01-27T16:40:16.738Z,21.93
2019-01-27T16:42:47.821Z,22.17
2019-01-27T16:45:18.566Z,17.43
2019-01-27T16:47:49.283Z,23.10
2019-01-27T16:50:20.256Z,17.30
2019-01-27T16:52:51.122Z,18.93
2019-01-27T16:55:22.105Z,19.10
2019-01-27T16:57:52.871Z,19.47
2019-01-27T17:00:25.832Z,17.17
2019-01-27T17:02:56.536Z,19.33
2019-01-27T17:05:27.126Z,19.87
2019-01-27T17:07:57.834Z,20.23
2019-01-27T17:10:29.133Z,20.97
2019-01-27T17:13:00.480Z,22.87
2019-01-27T17:15:31.292Z,22.90
2019-01-27T17:18:02.060Z,24.47
2019-01-27T17:20:32.587Z,24.03
2019-01-27T17:23:03.235Z,26.87
2019-01-27T17:25:33.875Z,24.83
2019-01-27T17:28:04.819Z,27.87
2019-01-27T17:30:35.551Z,24.40
2019-01-27T17:33:06.717Z,22.53
2019-01-27T17:35:37.471Z,25.47
2019-01-27T17:38:08.421Z,29.20
2019-01-27T17:40:39.318Z,27.83
2019-01-27T17:43:10.239Z,26.63
2019-01-27T17:45:41.064Z,25.80
2019-01-27T17:48:12.109Z,26.20
2019-01-27T17:50:42.945Z,26.23
2019-01-27T17:53:14.105Z,26.83
2019-01-27T17:55:45.854Z,29.57
2019-01-27T17:58:37.060Z,31.10
2019-01-27T18:01:25.744Z,23.77
2019-01-27T18:04:15.535Z,26.27
2019-01-27T18:07:09.904Z,24.83
2019-01-27T18:10:01.291Z,25.80
2019-01-27T18:12:54.937Z,24.53
2019-01-27T18:15:25.600Z,24.77
2019-01-27T18:17:56.283Z,24.87
2019-01-27T18:20:27.200Z,23.03
2019-01-27T18:22:57.882Z,20.43
2019-01-27T18:25:28.532Z,25.43
2019-01-27T18:27:59.567Z,23.90
2019-01-27T18:30:30.537Z,25.60
2019-01-27T18:33:01.289Z,19.63
2019-01-27T18:35:32.045Z,26.93
2019-01-27T18:38:02.882Z,23.10
2019-01-27T18:40:33.521Z,25.53
2019-01-27T18:43:04.579Z,25.97
2019-01-27T18:45:35.153Z,27.07
2019-01-27T18:48:06.338Z,25.20
2019-01-27T18:50:36.809Z,24.23
2019-01-27T18:53:35.453Z,25.00
2019-01-27T18:56:25.638Z,25.23
2019-01-27T18:59:06.017Z,25.10
2019-01-27T19:01:54.387Z,25.83
2019-01-27T19:04:46.898Z,28.83
2019-01-27T19:07:45.893Z,26.43
2019-01-27T19:10:26.727Z,26.00
2019-01-27T19:13:10.840Z,20.80
2019-01-27T19:16:12.730Z,24.97
2019-01-27T19:19:01.310Z,26.47
2019-01-27T19:21:57.248Z,28.27
2019-01-27T19:24:37.768Z,23.43
2019-01-27T19:27:26.359Z,24.97
2019-01-27T19:30:04.142Z,27.10
2019-01-27T19:32:44.957Z,26.33
2019-01-27T19:35:35.336Z,30.53
2019-01-27T19:38:25.445Z,28.93
2019-01-27T19:41:13.269Z,28.80
2019-01-27T19:43:52.692Z,27.00
2019-01-27T19:46:30.635Z,28.37
2019-01-27T19:49:21.134Z,26.77
2019-01-27T19:52:08.909Z,27.00
2019-01-27T19:55:07.760Z,41.97
2019-01-27T19:57:49.997Z,38.97
2019-01-27T20:00:39.513Z,28.03
2019-01-27T20:03:28.435Z,32.00
2019-01-27T20:06:18.418Z,30.60
2019-01-27T20:09:02.196Z,29.57
2019-01-27T20:11:52.141Z,30.03
2019-01-27T20:14:41.041Z,30.10
2019-01-27T20:17:30.975Z,28.17
2019-01-27T20:20:11.707Z,28.87
2019-01-27T20:22:57.076Z,31.87
2019-01-27T20:25:46.733Z,31.40
2019-01-27T20:28:35.560Z,31.27
2019-01-27T20:31:24.322Z,32.73
2019-01-27T20:34:23.624Z,31.10
2019-01-27T20:37:09.527Z,31.53
2019-01-27T20:40:02.414Z,29.90
2019-01-27T20:42:52.389Z,29.50
2019-01-27T20:45:30.641Z,32.10
2019-01-27T20:48:19.177Z,31.63
2019-01-27T20:51:06.063Z,29.97
2019-01-27T20:54:05.420Z,33.03
2019-01-27T20:56:46.576Z,30.77
2019-01-27T20:59:36.608Z,32.33
2019-01-27T21:02:29.145Z,33.93
2019-01-27T21:05:14.096Z,33.83
2019-01-27T21:08:06.454Z,32.73
2019-01-27T21:10:56.242Z,32.73
2019-01-27T21:13:36.560Z,32.03
2019-01-27T21:16:29.084Z,33.47
2019-01-27T21:19:14.416Z,33.03
2019-01-27T21:21:45.373Z,35.93
2019-01-27T21:24:16.031Z,34.67
2019-01-27T21:26:46.943Z,31.87
2019-01-27T21:29:17.888Z,28.63
2019-01-27T21:31:48.662Z,32.97
2019-01-27T21:34:19.632Z,32.03
2019-01-27T21:36:50.242Z,30.47
2019-01-27T21:39:21.113Z,32.37
2019-01-27T21:41:52.050Z,31.63
2019-01-27T21:44:22.889Z,32.00
2019-01-27T21:46:53.724Z,32.57
2019-01-27T21:49:24.563Z,29.10
2019-01-27T21:51:55.417Z,32.40
2019-01-27T21:54:26.387Z,31.57
2019-01-27T21:56:57.079Z,29.93
2019-01-27T21:59:28.192Z,36.33
2019-01-27T22:01:59.025Z,39.07
2019-01-27T22:04:29.675Z,37.80
2019-01-27T22:07:00.695Z,39.67
2019-01-27T22:09:31.510Z,36.70
2019-01-27T22:12:02.781Z,33.77
2019-01-27T22:14:33.641Z,34.00
2019-01-27T22:17:04.415Z,34.20
2019-01-27T22:19:35.430Z,34.57
2019-01-27T22:22:06.104Z,38.33
2019-01-27T22:27:56.063Z,35.83
2019-01-27T22:30:26.763Z,35.67
2019-01-27T22:32:57.879Z,33.43
2019-01-27T22:35:28.847Z,30.70
2019-01-27T22:37:59.843Z,34.57
2019-01-27T22:40:30.566Z,36.97
2019-01-27T22:43:01.174Z,37.97
2019-01-27T22:45:31.837Z,37.30
2019-01-27T22:48:02.418Z,37.60
2019-01-27T22:50:33.000Z,41.77
2019-01-27T22:53:03.716Z,37.57
2019-01-27T22:55:34.947Z,38.67
2019-01-27T22:58:06.661Z,38.80
2019-01-27T23:01:00.139Z,34.27
2019-01-27T23:03:34.234Z,39.83
2019-01-27T23:06:05.294Z,39.70
2019-01-27T23:08:36.193Z,37.60
2019-01-27T23:11:07.332Z,33.73
2019-01-27T23:13:38.011Z,37.23
2019-01-27T23:16:08.575Z,41.50
2019-01-27T23:18:39.492Z,37.33
2019-01-27T23:21:10.349Z,34.67
2019-01-27T23:23:41.900Z,40.53
2019-01-27T23:26:14.020Z,36.87
2019-01-27T23:28:44.642Z,38.00
2019-01-27T23:31:15.317Z,39.53
2019-01-27T23:33:46.122Z,38.07
2019-01-27T23:36:16.851Z,43.50
2019-01-27T23:38:47.870Z,38.40
2019-01-27T23:41:18.616Z,39.63
2019-01-27T23:43:49.499Z,38.70
2019-01-27T23:46:20.391Z,41.87
2019-01-27T23:48:50.919Z,40.33
2019-01-27T23:51:21.800Z,41.17
2019-01-27T23:53:52.568Z,40.30
2019-01-27T23:56:23.394Z,39.93
2019-01-27T23:58:55.741Z,40.03
